sensor_id;sensor_type;location;lat;lon;timestamp;P1;durP1;ratioP1;P2;durP2;ratioP2
8044;SDS011;4065;48.754;9.982;2024-03-29T00:00:38;5.30;;;3.90;;
8044;SDS011;4065;48.754;9.982;2024-03-29T00:03:59;3.88;;;3.53;;
8044;SDS011;4065;48.754;9.982;2024-03-29T00:07:20;4.10;;;3.70;;
8044;SDS011;4065;48.754;9.982;2024-03-29T00:10:41;5.85;;;3.83;;
8044;SDS011;4065;48.754;9.982;2024-03-29T00:14:03;5.00;;;3.92;;
8044;SDS011;4065;48.754;9.982;2024-03-29T00:17:24;5.07;;;4.55;;
8044;SDS011;4065;48.754;9.982;2024-03-29T00:20:45;5.45;;;4.35;;
8044;SDS011;4065;48.754;9.982;2024-03-29T00:24:06;4.25;;;3.95;;
8044;SDS011;4065;48.754;9.982;2024-03-29T00:27:27;4.28;;;3.65;;
8044;SDS011;4065;48.754;9.982;2024-03-29T00:30:49;4.05;;;3.75;;
8044;SDS011;4065;48.754;9.982;2024-03-29T00:34:10;7.60;;;5.03;;
8044;SDS011;4065;48.754;9.982;2024-03-29T00:37:31;5.43;;;4.93;;
8044;SDS011;4065;48.754;9.982;2024-03-29T00:40:52;4.72;;;4.32;;
8044;SDS011;4065;48.754;9.982;2024-03-29T00:44:12;6.10;;;4.75;;
8044;SDS011;4065;48.754;9.982;2024-03-29T00:47:35;5.45;;;4.30;;
8044;SDS011;4065;48.754;9.982;2024-03-29T00:50:55;4.82;;;4.43;;
8044;SDS011;4065;48.754;9.982;2024-03-29T00:54:16;4.93;;;4.53;;
8044;SDS011;4065;48.754;9.982;2024-03-29T00:57:37;5.80;;;5.05;;
8044;SDS011;4065;48.754;9.982;2024-03-29T01:00:59;7.90;;;4.82;;
8044;SDS011;4065;48.754;9.982;2024-03-29T01:04:22;4.93;;;4.43;;
8044;SDS011;4065;48.754;9.982;2024-03-29T01:07:42;5.40;;;4.63;;
8044;SDS011;4065;48.754;9.982;2024-03-29T01:11:03;4.88;;;4.47;;
8044;SDS011;4065;48.754;9.982;2024-03-29T01:14:24;4.35;;;3.95;;
8044;SDS011;4065;48.754;9.982;2024-03-29T01:17:45;7.63;;;4.60;;
8044;SDS011;4065;48.754;9.982;2024-03-29T01:21:07;4.80;;;4.40;;
8044;SDS011;4065;48.754;9.982;2024-03-29T01:24:28;5.13;;;4.60;;
8044;SDS011;4065;48.754;9.982;2024-03-29T01:27:49;6.38;;;4.95;;
8044;SDS011;4065;48.754;9.982;2024-03-29T01:31:09;5.30;;;4.80;;
8044;SDS011;4065;48.754;9.982;2024-03-29T01:34:30;4.53;;;4.13;;
8044;SDS011;4065;48.754;9.982;2024-03-29T01:37:53;8.65;;;7.72;;
8044;SDS011;4065;48.754;9.982;2024-03-29T01:41:13;4.88;;;4.40;;
8044;SDS011;4065;48.754;9.982;2024-03-29T01:44:34;5.18;;;4.57;;
8044;SDS011;4065;48.754;9.982;2024-03-29T01:47:57;4.65;;;4.25;;
8044;SDS011;4065;48.754;9.982;2024-03-29T01:51:19;6.35;;;4.20;;
8044;SDS011;4065;48.754;9.982;2024-03-29T01:54:42;4.25;;;3.85;;
8044;SDS011;4065;48.754;9.982;2024-03-29T01:58:04;3.75;;;3.45;;
8044;SDS011;4065;48.754;9.982;2024-03-29T02:01:27;5.30;;;4.47;;
8044;SDS011;4065;48.754;9.982;2024-03-29T02:04:49;4.65;;;4.25;;
8044;SDS011;4065;48.754;9.982;2024-03-29T02:08:11;4.65;;;4.22;;
8044;SDS011;4065;48.754;9.982;2024-03-29T02:11:34;4.32;;;3.92;;
8044;SDS011;4065;48.754;9.982;2024-03-29T02:14:56;4.32;;;3.97;;
8044;SDS011;4065;48.754;9.982;2024-03-29T02:18:18;4.40;;;3.78;;
8044;SDS011;4065;48.754;9.982;2024-03-29T02:21:41;5.30;;;3.75;;
8044;SDS011;4065;48.754;9.982;2024-03-29T02:25:05;4.68;;;4.25;;
8044;SDS011;4065;48.754;9.982;2024-03-29T02:28:27;4.45;;;4.05;;
8044;SDS011;4065;48.754;9.982;2024-03-29T02:31:49;4.78;;;4.38;;
8044;SDS011;4065;48.754;9.982;2024-03-29T02:35:10;6.05;;;4.65;;
8044;SDS011;4065;48.754;9.982;2024-03-29T02:38:32;4.38;;;3.97;;
8044;SDS011;4065;48.754;9.982;2024-03-29T02:41:55;5.30;;;4.20;;
8044;SDS011;4065;48.754;9.982;2024-03-29T02:45:17;5.15;;;3.95;;
8044;SDS011;4065;48.754;9.982;2024-03-29T02:48:39;3.88;;;3.58;;
8044;SDS011;4065;48.754;9.982;2024-03-29T02:52:02;6.93;;;3.88;;
8044;SDS011;4065;48.754;9.982;2024-03-29T02:55:22;4.70;;;4.30;;
8044;SDS011;4065;48.754;9.982;2024-03-29T02:58:45;5.13;;;4.53;;
8044;SDS011;4065;48.754;9.982;2024-03-29T03:02:07;4.70;;;4.00;;
8044;SDS011;4065;48.754;9.982;2024-03-29T03:05:29;4.45;;;4.03;;
8044;SDS011;4065;48.754;9.982;2024-03-29T03:08:50;4.72;;;4.00;;
8044;SDS011;4065;48.754;9.982;2024-03-29T03:12:30;4.20;;;3.88;;
8044;SDS011;4065;48.754;9.982;2024-03-29T03:15:53;4.88;;;4.13;;
8044;SDS011;4065;48.754;9.982;2024-03-29T03:19:14;3.80;;;3.50;;
8044;SDS011;4065;48.754;9.982;2024-03-29T03:22:36;3.80;;;3.50;;
8044;SDS011;4065;48.754;9.982;2024-03-29T03:25:58;4.82;;;3.75;;
8044;SDS011;4065;48.754;9.982;2024-03-29T03:29:20;3.67;;;3.33;;
8044;SDS011;4065;48.754;9.982;2024-03-29T03:32:42;3.35;;;3.08;;
8044;SDS011;4065;48.754;9.982;2024-03-29T03:36:04;3.40;;;3.10;;
8044;SDS011;4065;48.754;9.982;2024-03-29T03:39:26;3.50;;;3.08;;
8044;SDS011;4065;48.754;9.982;2024-03-29T03:42:47;4.43;;;3.20;;
8044;SDS011;4065;48.754;9.982;2024-03-29T03:46:08;3.30;;;3.00;;
8044;SDS011;4065;48.754;9.982;2024-03-29T03:49:31;3.42;;;3.15;;
8044;SDS011;4065;48.754;9.982;2024-03-29T03:52:52;3.72;;;3.42;;
8044;SDS011;4065;48.754;9.982;2024-03-29T03:56:14;3.38;;;3.10;;
8044;SDS011;4065;48.754;9.982;2024-03-29T03:59:34;3.42;;;3.13;;
8044;SDS011;4065;48.754;9.982;2024-03-29T04:02:56;3.38;;;3.08;;
8044;SDS011;4065;48.754;9.982;2024-03-29T04:06:19;3.38;;;3.05;;
8044;SDS011;4065;48.754;9.982;2024-03-29T04:09:41;4.35;;;3.28;;
8044;SDS011;4065;48.754;9.982;2024-03-29T04:13:02;2.83;;;2.63;;
8044;SDS011;4065;48.754;9.982;2024-03-29T04:16:23;3.83;;;3.53;;
8044;SDS011;4065;48.754;9.982;2024-03-29T04:19:45;3.53;;;3.22;;
8044;SDS011;4065;48.754;9.982;2024-03-29T04:23:08;3.13;;;2.90;;
8044;SDS011;4065;48.754;9.982;2024-03-29T04:26:29;6.15;;;3.15;;
8044;SDS011;4065;48.754;9.982;2024-03-29T04:29:51;3.08;;;2.88;;
8044;SDS011;4065;48.754;9.982;2024-03-29T04:33:13;3.20;;;3.00;;
8044;SDS011;4065;48.754;9.982;2024-03-29T04:36:34;2.85;;;2.65;;
8044;SDS011;4065;48.754;9.982;2024-03-29T04:39:57;2.90;;;2.70;;
8044;SDS011;4065;48.754;9.982;2024-03-29T04:43:18;3.03;;;2.83;;
8044;SDS011;4065;48.754;9.982;2024-03-29T04:46:40;2.80;;;2.60;;
8044;SDS011;4065;48.754;9.982;2024-03-29T04:50:02;3.05;;;2.80;;
8044;SDS011;4065;48.754;9.982;2024-03-29T04:53:24;3.30;;;3.00;;
8044;SDS011;4065;48.754;9.982;2024-03-29T04:56:47;3.45;;;2.60;;
8044;SDS011;4065;48.754;9.982;2024-03-29T05:00:09;2.90;;;2.70;;
8044;SDS011;4065;48.754;9.982;2024-03-29T05:03:31;3.47;;;3.20;;
8044;SDS011;4065;48.754;9.982;2024-03-29T05:06:53;3.00;;;2.80;;
8044;SDS011;4065;48.754;9.982;2024-03-29T05:10:15;3.53;;;2.72;;
8044;SDS011;4065;48.754;9.982;2024-03-29T05:13:38;2.97;;;2.78;;
8044;SDS011;4065;48.754;9.982;2024-03-29T05:17:05;2.78;;;2.58;;
8044;SDS011;4065;48.754;9.982;2024-03-29T05:20:27;2.90;;;2.70;;
8044;SDS011;4065;48.754;9.982;2024-03-29T05:23:49;3.08;;;2.88;;
8044;SDS011;4065;48.754;9.982;2024-03-29T05:27:10;3.63;;;2.97;;
8044;SDS011;4065;48.754;9.982;2024-03-29T05:30:34;3.33;;;3.05;;
8044;SDS011;4065;48.754;9.982;2024-03-29T05:33:56;3.55;;;3.22;;
8044;SDS011;4065;48.754;9.982;2024-03-29T05:37:17;3.42;;;3.13;;
8044;SDS011;4065;48.754;9.982;2024-03-29T05:40:39;4.25;;;3.10;;
8044;SDS011;4065;48.754;9.982;2024-03-29T05:44:01;3.47;;;3.17;;
8044;SDS011;4065;48.754;9.982;2024-03-29T05:47:24;3.20;;;3.00;;
8044;SDS011;4065;48.754;9.982;2024-03-29T05:50:46;3.30;;;3.00;;
8044;SDS011;4065;48.754;9.982;2024-03-29T05:54:07;3.25;;;3.00;;
8044;SDS011;4065;48.754;9.982;2024-03-29T05:57:29;4.15;;;3.40;;
8044;SDS011;4065;48.754;9.982;2024-03-29T06:00:55;3.45;;;3.20;;
8044;SDS011;4065;48.754;9.982;2024-03-29T06:04:18;3.38;;;3.08;;
8044;SDS011;4065;48.754;9.982;2024-03-29T06:07:44;8.05;;;7.25;;
8044;SDS011;4065;48.754;9.982;2024-03-29T06:11:06;3.70;;;3.40;;
8044;SDS011;4065;48.754;9.982;2024-03-29T06:14:28;2.97;;;2.63;;
8044;SDS011;4065;48.754;9.982;2024-03-29T06:18:07;3.45;;;3.15;;
8044;SDS011;4065;48.754;9.982;2024-03-29T06:21:31;2.83;;;2.63;;
8044;SDS011;4065;48.754;9.982;2024-03-29T06:24:59;3.20;;;2.90;;
8044;SDS011;4065;48.754;9.982;2024-03-29T06:28:25;3.00;;;2.80;;
8044;SDS011;4065;48.754;9.982;2024-03-29T06:31:46;2.97;;;2.78;;
8044;SDS011;4065;48.754;9.982;2024-03-29T06:35:08;3.50;;;3.20;;
8044;SDS011;4065;48.754;9.982;2024-03-29T06:38:32;2.80;;;2.60;;
8044;SDS011;4065;48.754;9.982;2024-03-29T06:41:53;3.78;;;2.83;;
8044;SDS011;4065;48.754;9.982;2024-03-29T06:45:15;5.88;;;4.63;;
8044;SDS011;4065;48.754;9.982;2024-03-29T06:48:37;4.93;;;4.40;;
8044;SDS011;4065;48.754;9.982;2024-03-29T06:51:58;3.90;;;3.50;;
8044;SDS011;4065;48.754;9.982;2024-03-29T06:55:23;3.20;;;3.00;;
8044;SDS011;4065;48.754;9.982;2024-03-29T06:58:44;3.00;;;2.80;;
8044;SDS011;4065;48.754;9.982;2024-03-29T07:02:06;2.90;;;2.70;;
8044;SDS011;4065;48.754;9.982;2024-03-29T07:05:28;2.80;;;2.60;;
8044;SDS011;4065;48.754;9.982;2024-03-29T07:08:49;3.10;;;2.70;;
8044;SDS011;4065;48.754;9.982;2024-03-29T07:12:12;3.10;;;2.90;;
8044;SDS011;4065;48.754;9.982;2024-03-29T07:15:34;3.60;;;3.30;;
8044;SDS011;4065;48.754;9.982;2024-03-29T07:18:56;3.10;;;2.90;;
8044;SDS011;4065;48.754;9.982;2024-03-29T07:22:23;2.78;;;2.58;;
8044;SDS011;4065;48.754;9.982;2024-03-29T07:25:45;3.10;;;2.90;;
8044;SDS011;4065;48.754;9.982;2024-03-29T07:29:08;3.58;;;3.22;;
8044;SDS011;4065;48.754;9.982;2024-03-29T07:32:30;3.03;;;2.83;;
8044;SDS011;4065;48.754;9.982;2024-03-29T07:35:52;2.50;;;2.40;;
8044;SDS011;4065;48.754;9.982;2024-03-29T07:39:17;3.35;;;3.05;;
8044;SDS011;4065;48.754;9.982;2024-03-29T07:42:39;4.43;;;3.55;;
8044;SDS011;4065;48.754;9.982;2024-03-29T07:46:02;3.35;;;3.05;;
8044;SDS011;4065;48.754;9.982;2024-03-29T07:49:24;3.58;;;3.28;;
8044;SDS011;4065;48.754;9.982;2024-03-29T07:52:45;3.42;;;3.17;;
8044;SDS011;4065;48.754;9.982;2024-03-29T07:56:07;7.25;;;4.95;;
8044;SDS011;4065;48.754;9.982;2024-03-29T07:59:29;3.50;;;3.20;;
8044;SDS011;4065;48.754;9.982;2024-03-29T08:02:52;4.63;;;3.47;;
8044;SDS011;4065;48.754;9.982;2024-03-29T08:06:14;4.07;;;3.50;;
8044;SDS011;4065;48.754;9.982;2024-03-29T08:09:38;4.57;;;3.70;;
8044;SDS011;4065;48.754;9.982;2024-03-29T08:13:00;5.38;;;3.55;;
8044;SDS011;4065;48.754;9.982;2024-03-29T08:16:22;4.10;;;3.70;;
8044;SDS011;4065;48.754;9.982;2024-03-29T08:19:45;5.45;;;4.50;;
8044;SDS011;4065;48.754;9.982;2024-03-29T08:23:11;3.17;;;2.97;;
8044;SDS011;4065;48.754;9.982;2024-03-29T08:26:33;2.95;;;2.75;;
8044;SDS011;4065;48.754;9.982;2024-03-29T08:29:55;3.10;;;2.78;;
8044;SDS011;4065;48.754;9.982;2024-03-29T08:33:16;3.78;;;3.47;;
8044;SDS011;4065;48.754;9.982;2024-03-29T08:36:43;3.63;;;3.33;;
8044;SDS011;4065;48.754;9.982;2024-03-29T08:40:05;3.30;;;3.00;;
8044;SDS011;4065;48.754;9.982;2024-03-29T08:43:29;3.50;;;3.20;;
8044;SDS011;4065;48.754;9.982;2024-03-29T08:46:50;4.90;;;4.40;;
8044;SDS011;4065;48.754;9.982;2024-03-29T08:50:12;4.47;;;4.15;;
8044;SDS011;4065;48.754;9.982;2024-03-29T08:53:36;5.85;;;4.78;;
8044;SDS011;4065;48.754;9.982;2024-03-29T08:56:58;7.75;;;6.78;;
8044;SDS011;4065;48.754;9.982;2024-03-29T09:00:26;4.20;;;3.90;;
8044;SDS011;4065;48.754;9.982;2024-03-29T09:03:48;10.77;;;8.93;;
8044;SDS011;4065;48.754;9.982;2024-03-29T09:07:10;5.90;;;5.20;;
8044;SDS011;4065;48.754;9.982;2024-03-29T09:10:40;9.95;;;7.78;;
8044;SDS011;4065;48.754;9.982;2024-03-29T09:14:01;6.03;;;5.43;;
8044;SDS011;4065;48.754;9.982;2024-03-29T09:17:24;11.77;;;7.72;;
8044;SDS011;4065;48.754;9.982;2024-03-29T09:20:55;5.75;;;3.92;;
8044;SDS011;4065;48.754;9.982;2024-03-29T09:24:16;5.80;;;5.20;;
8044;SDS011;4065;48.754;9.982;2024-03-29T09:27:39;3.70;;;2.80;;
8044;SDS011;4065;48.754;9.982;2024-03-29T09:31:03;2.50;;;2.30;;
8044;SDS011;4065;48.754;9.982;2024-03-29T09:34:25;2.80;;;2.58;;
8044;SDS011;4065;48.754;9.982;2024-03-29T09:37:46;2.60;;;2.40;;
8044;SDS011;4065;48.754;9.982;2024-03-29T09:41:10;3.95;;;3.17;;
8044;SDS011;4065;48.754;9.982;2024-03-29T09:44:34;5.22;;;4.43;;
8044;SDS011;4065;48.754;9.982;2024-03-29T09:47:56;4.35;;;3.95;;
8044;SDS011;4065;48.754;9.982;2024-03-29T09:51:19;7.47;;;4.20;;
8044;SDS011;4065;48.754;9.982;2024-03-29T09:54:41;5.72;;;3.00;;
8044;SDS011;4065;48.754;9.982;2024-03-29T09:58:05;3.70;;;3.40;;
8044;SDS011;4065;48.754;9.982;2024-03-29T10:01:30;4.95;;;4.55;;
8044;SDS011;4065;48.754;9.982;2024-03-29T10:04:52;5.32;;;4.90;;
8044;SDS011;4065;48.754;9.982;2024-03-29T10:08:17;5.57;;;4.70;;
8044;SDS011;4065;48.754;9.982;2024-03-29T10:11:39;4.18;;;3.63;;
8044;SDS011;4065;48.754;9.982;2024-03-29T10:15:00;5.85;;;4.55;;
8044;SDS011;4065;48.754;9.982;2024-03-29T10:18:30;4.30;;;3.80;;
8044;SDS011;4065;48.754;9.982;2024-03-29T10:21:52;6.65;;;4.80;;
8044;SDS011;4065;48.754;9.982;2024-03-29T10:25:14;3.20;;;2.80;;
8044;SDS011;4065;48.754;9.982;2024-03-29T10:28:36;2.70;;;2.50;;
8044;SDS011;4065;48.754;9.982;2024-03-29T10:31:58;4.97;;;3.42;;
8044;SDS011;4065;48.754;9.982;2024-03-29T10:35:21;2.95;;;2.75;;
8044;SDS011;4065;48.754;9.982;2024-03-29T10:38:46;3.00;;;2.60;;
8044;SDS011;4065;48.754;9.982;2024-03-29T10:42:13;3.53;;;2.45;;
8044;SDS011;4065;48.754;9.982;2024-03-29T10:45:35;2.55;;;2.35;;
8044;SDS011;4065;48.754;9.982;2024-03-29T10:48:58;3.60;;;2.90;;
8044;SDS011;4065;48.754;9.982;2024-03-29T10:52:24;3.40;;;2.85;;
8044;SDS011;4065;48.754;9.982;2024-03-29T10:55:46;3.03;;;2.72;;
8044;SDS011;4065;48.754;9.982;2024-03-29T10:59:12;2.78;;;2.42;;
8044;SDS011;4065;48.754;9.982;2024-03-29T11:02:47;2.08;;;1.85;;
8044;SDS011;4065;48.754;9.982;2024-03-29T11:06:09;2.28;;;2.10;;
8044;SDS011;4065;48.754;9.982;2024-03-29T11:09:38;2.03;;;1.90;;
8044;SDS011;4065;48.754;9.982;2024-03-29T11:13:02;3.00;;;2.10;;
8044;SDS011;4065;48.754;9.982;2024-03-29T11:16:27;2.53;;;2.35;;
8044;SDS011;4065;48.754;9.982;2024-03-29T11:19:49;2.63;;;2.28;;
8044;SDS011;4065;48.754;9.982;2024-03-29T11:23:11;3.38;;;2.50;;
8044;SDS011;4065;48.754;9.982;2024-03-29T11:26:35;2.50;;;2.28;;
8044;SDS011;4065;48.754;9.982;2024-03-29T11:30:01;2.72;;;2.53;;
8044;SDS011;4065;48.754;9.982;2024-03-29T11:33:27;4.78;;;2.85;;
8044;SDS011;4065;48.754;9.982;2024-03-29T11:36:49;4.57;;;2.90;;
8044;SDS011;4065;48.754;9.982;2024-03-29T11:40:11;4.10;;;2.97;;
8044;SDS011;4065;48.754;9.982;2024-03-29T11:43:34;3.35;;;2.50;;
8044;SDS011;4065;48.754;9.982;2024-03-29T11:46:58;3.58;;;2.58;;
8044;SDS011;4065;48.754;9.982;2024-03-29T11:50:20;2.40;;;2.20;;
8044;SDS011;4065;48.754;9.982;2024-03-29T11:53:42;3.38;;;2.70;;
8044;SDS011;4065;48.754;9.982;2024-03-29T11:57:04;3.25;;;2.30;;
8044;SDS011;4065;48.754;9.982;2024-03-29T12:00:27;2.55;;;2.35;;
8044;SDS011;4065;48.754;9.982;2024-03-29T12:03:50;2.15;;;2.03;;
8044;SDS011;4065;48.754;9.982;2024-03-29T12:07:12;3.60;;;2.55;;
8044;SDS011;4065;48.754;9.982;2024-03-29T12:10:34;3.03;;;2.10;;
8044;SDS011;4065;48.754;9.982;2024-03-29T12:13:56;2.90;;;2.60;;
8044;SDS011;4065;48.754;9.982;2024-03-29T12:17:21;3.15;;;2.50;;
8044;SDS011;4065;48.754;9.982;2024-03-29T12:20:43;2.83;;;2.55;;
8044;SDS011;4065;48.754;9.982;2024-03-29T12:24:08;3.25;;;2.30;;
8044;SDS011;4065;48.754;9.982;2024-03-29T12:27:30;4.03;;;2.22;;
8044;SDS011;4065;48.754;9.982;2024-03-29T12:30:52;3.05;;;2.08;;
8044;SDS011;4065;48.754;9.982;2024-03-29T12:34:22;2.00;;;1.88;;
8044;SDS011;4065;48.754;9.982;2024-03-29T12:37:47;3.20;;;2.60;;
8044;SDS011;4065;48.754;9.982;2024-03-29T12:41:09;2.65;;;2.20;;
8044;SDS011;4065;48.754;9.982;2024-03-29T12:44:31;2.65;;;2.40;;
8044;SDS011;4065;48.754;9.982;2024-03-29T12:47:54;2.67;;;1.98;;
8044;SDS011;4065;48.754;9.982;2024-03-29T12:51:19;3.50;;;2.67;;
8044;SDS011;4065;48.754;9.982;2024-03-29T12:54:40;2.38;;;2.00;;
8044;SDS011;4065;48.754;9.982;2024-03-29T12:58:02;2.85;;;2.20;;
8044;SDS011;4065;48.754;9.982;2024-03-29T13:01:25;4.80;;;2.25;;
8044;SDS011;4065;48.754;9.982;2024-03-29T13:04:46;2.63;;;2.08;;
8044;SDS011;4065;48.754;9.982;2024-03-29T13:08:10;2.00;;;1.88;;
8044;SDS011;4065;48.754;9.982;2024-03-29T13:11:32;3.42;;;2.40;;
8044;SDS011;4065;48.754;9.982;2024-03-29T13:14:54;2.40;;;2.20;;
8044;SDS011;4065;48.754;9.982;2024-03-29T13:18:16;3.10;;;2.50;;
8044;SDS011;4065;48.754;9.982;2024-03-29T13:21:38;2.63;;;2.28;;
8044;SDS011;4065;48.754;9.982;2024-03-29T13:25:01;3.35;;;2.33;;
8044;SDS011;4065;48.754;9.982;2024-03-29T13:28:25;2.30;;;2.10;;
8044;SDS011;4065;48.754;9.982;2024-03-29T13:31:47;3.38;;;2.50;;
8044;SDS011;4065;48.754;9.982;2024-03-29T13:35:08;2.33;;;1.90;;
8044;SDS011;4065;48.754;9.982;2024-03-29T13:38:31;1.90;;;1.70;;
8044;SDS011;4065;48.754;9.982;2024-03-29T13:41:54;2.00;;;1.70;;
8044;SDS011;4065;48.754;9.982;2024-03-29T13:45:15;2.03;;;1.83;;
8044;SDS011;4065;48.754;9.982;2024-03-29T13:48:37;1.70;;;1.60;;
8044;SDS011;4065;48.754;9.982;2024-03-29T13:51:59;2.10;;;1.90;;
8044;SDS011;4065;48.754;9.982;2024-03-29T13:55:21;2.28;;;1.70;;
8044;SDS011;4065;48.754;9.982;2024-03-29T13:58:47;1.95;;;1.80;;
8044;SDS011;4065;48.754;9.982;2024-03-29T14:02:11;4.50;;;1.60;;
8044;SDS011;4065;48.754;9.982;2024-03-29T14:05:33;2.25;;;1.65;;
8044;SDS011;4065;48.754;9.982;2024-03-29T14:08:55;2.75;;;1.50;;
8044;SDS011;4065;48.754;9.982;2024-03-29T14:12:17;1.95;;;1.67;;
8044;SDS011;4065;48.754;9.982;2024-03-29T14:15:43;4.07;;;1.75;;
8044;SDS011;4065;48.754;9.982;2024-03-29T14:19:05;2.10;;;1.65;;
8044;SDS011;4065;48.754;9.982;2024-03-29T14:22:27;1.60;;;1.50;;
8044;SDS011;4065;48.754;9.982;2024-03-29T14:25:51;2.67;;;1.60;;
8044;SDS011;4065;48.754;9.982;2024-03-29T14:29:13;1.65;;;1.52;;
8044;SDS011;4065;48.754;9.982;2024-03-29T14:32:37;3.00;;;1.80;;
8044;SDS011;4065;48.754;9.982;2024-03-29T14:35:59;1.73;;;1.55;;
8044;SDS011;4065;48.754;9.982;2024-03-29T14:39:21;2.40;;;1.73;;
8044;SDS011;4065;48.754;9.982;2024-03-29T14:42:42;2.33;;;1.65;;
8044;SDS011;4065;48.754;9.982;2024-03-29T14:46:04;2.78;;;1.95;;
8044;SDS011;4065;48.754;9.982;2024-03-29T14:49:27;1.73;;;1.63;;
8044;SDS011;4065;48.754;9.982;2024-03-29T14:52:49;1.95;;;1.55;;
8044;SDS011;4065;48.754;9.982;2024-03-29T14:56:11;2.58;;;1.60;;
8044;SDS011;4065;48.754;9.982;2024-03-29T14:59:33;2.58;;;2.03;;
8044;SDS011;4065;48.754;9.982;2024-03-29T15:02:57;3.05;;;2.30;;
8044;SDS011;4065;48.754;9.982;2024-03-29T15:06:20;3.63;;;1.98;;
8044;SDS011;4065;48.754;9.982;2024-03-29T15:09:49;2.75;;;1.95;;
8044;SDS011;4065;48.754;9.982;2024-03-29T15:13:11;2.17;;;1.90;;
8044;SDS011;4065;48.754;9.982;2024-03-29T15:16:32;2.85;;;2.33;;
8044;SDS011;4065;48.754;9.982;2024-03-29T15:19:54;2.85;;;2.00;;
8044;SDS011;4065;48.754;9.982;2024-03-29T15:23:18;2.83;;;2.30;;
8044;SDS011;4065;48.754;9.982;2024-03-29T15:26:44;3.08;;;2.10;;
8044;SDS011;4065;48.754;9.982;2024-03-29T15:30:06;3.47;;;1.98;;
8044;SDS011;4065;48.754;9.982;2024-03-29T15:33:28;3.65;;;2.33;;
8044;SDS011;4065;48.754;9.982;2024-03-29T15:36:53;3.38;;;1.90;;
8044;SDS011;4065;48.754;9.982;2024-03-29T15:40:45;2.38;;;1.92;;
8044;SDS011;4065;48.754;9.982;2024-03-29T15:44:14;3.53;;;2.58;;
8044;SDS011;4065;48.754;9.982;2024-03-29T15:47:36;4.03;;;2.53;;
8044;SDS011;4065;48.754;9.982;2024-03-29T15:50:58;7.93;;;4.80;;
8044;SDS011;4065;48.754;9.982;2024-03-29T15:54:20;6.05;;;4.18;;
8044;SDS011;4065;48.754;9.982;2024-03-29T15:57:45;4.13;;;2.97;;
8044;SDS011;4065;48.754;9.982;2024-03-29T16:01:07;3.58;;;2.67;;
8044;SDS011;4065;48.754;9.982;2024-03-29T16:04:29;3.22;;;2.40;;
8044;SDS011;4065;48.754;9.982;2024-03-29T16:07:51;2.10;;;1.90;;
8044;SDS011;4065;48.754;9.982;2024-03-29T16:11:13;2.10;;;1.90;;
8044;SDS011;4065;48.754;9.982;2024-03-29T16:14:39;2.33;;;2.13;;
8044;SDS011;4065;48.754;9.982;2024-03-29T16:18:01;4.55;;;2.90;;
8044;SDS011;4065;48.754;9.982;2024-03-29T16:21:23;4.90;;;3.17;;
8044;SDS011;4065;48.754;9.982;2024-03-29T16:24:44;3.40;;;3.10;;
8044;SDS011;4065;48.754;9.982;2024-03-29T16:28:06;4.50;;;3.85;;
8044;SDS011;4065;48.754;9.982;2024-03-29T16:31:30;4.78;;;3.75;;
8044;SDS011;4065;48.754;9.982;2024-03-29T16:34:52;6.35;;;4.50;;
8044;SDS011;4065;48.754;9.982;2024-03-29T16:38:13;4.82;;;3.10;;
8044;SDS011;4065;48.754;9.982;2024-03-29T16:41:34;4.28;;;2.70;;
8044;SDS011;4065;48.754;9.982;2024-03-29T16:44:55;5.10;;;3.20;;
8044;SDS011;4065;48.754;9.982;2024-03-29T16:48:18;2.70;;;2.50;;
8044;SDS011;4065;48.754;9.982;2024-03-29T16:51:43;3.72;;;2.80;;
8044;SDS011;4065;48.754;9.982;2024-03-29T16:55:04;5.70;;;3.10;;
8044;SDS011;4065;48.754;9.982;2024-03-29T16:58:29;4.93;;;3.60;;
8044;SDS011;4065;48.754;9.982;2024-03-29T17:01:53;5.43;;;4.63;;
8044;SDS011;4065;48.754;9.982;2024-03-29T17:05:15;4.80;;;4.18;;
8044;SDS011;4065;48.754;9.982;2024-03-29T17:08:37;3.97;;;3.33;;
8044;SDS011;4065;48.754;9.982;2024-03-29T17:11:58;4.32;;;3.70;;
8044;SDS011;4065;48.754;9.982;2024-03-29T17:15:20;4.45;;;4.05;;
8044;SDS011;4065;48.754;9.982;2024-03-29T17:18:41;4.20;;;3.80;;
8044;SDS011;4065;48.754;9.982;2024-03-29T17:22:04;3.80;;;3.40;;
8044;SDS011;4065;48.754;9.982;2024-03-29T17:25:26;3.30;;;2.88;;
8044;SDS011;4065;48.754;9.982;2024-03-29T17:28:48;4.55;;;3.42;;
8044;SDS011;4065;48.754;9.982;2024-03-29T17:32:08;4.20;;;3.25;;
8044;SDS011;4065;48.754;9.982;2024-03-29T17:35:30;4.85;;;4.03;;
8044;SDS011;4065;48.754;9.982;2024-03-29T17:38:56;6.63;;;4.75;;
8044;SDS011;4065;48.754;9.982;2024-03-29T17:42:21;6.68;;;4.10;;
8044;SDS011;4065;48.754;9.982;2024-03-29T17:45:43;8.93;;;6.03;;
8044;SDS011;4065;48.754;9.982;2024-03-29T17:49:04;7.95;;;5.55;;
8044;SDS011;4065;48.754;9.982;2024-03-29T17:52:25;4.63;;;3.80;;
8044;SDS011;4065;48.754;9.982;2024-03-29T17:55:48;3.83;;;3.47;;
8044;SDS011;4065;48.754;9.982;2024-03-29T17:59:09;6.57;;;3.95;;
8044;SDS011;4065;48.754;9.982;2024-03-29T18:02:35;37.92;;;27.92;;
8044;SDS011;4065;48.754;9.982;2024-03-29T18:05:57;20.95;;;15.68;;
8044;SDS011;4065;48.754;9.982;2024-03-29T18:09:17;16.75;;;13.02;;
8044;SDS011;4065;48.754;9.982;2024-03-29T18:12:40;10.13;;;8.98;;
8044;SDS011;4065;48.754;9.982;2024-03-29T18:16:03;7.65;;;5.03;;
8044;SDS011;4065;48.754;9.982;2024-03-29T18:19:24;6.97;;;5.30;;
8044;SDS011;4065;48.754;9.982;2024-03-29T18:22:46;10.98;;;7.80;;
8044;SDS011;4065;48.754;9.982;2024-03-29T18:26:07;8.07;;;6.72;;
8044;SDS011;4065;48.754;9.982;2024-03-29T18:29:30;7.88;;;4.40;;
8044;SDS011;4065;48.754;9.982;2024-03-29T18:32:51;6.47;;;4.95;;
8044;SDS011;4065;48.754;9.982;2024-03-29T18:36:12;25.65;;;19.00;;
8044;SDS011;4065;48.754;9.982;2024-03-29T18:39:37;17.95;;;13.15;;
8044;SDS011;4065;48.754;9.982;2024-03-29T18:42:58;10.63;;;8.50;;
8044;SDS011;4065;48.754;9.982;2024-03-29T18:46:21;31.00;;;18.80;;
8044;SDS011;4065;48.754;9.982;2024-03-29T18:49:43;15.10;;;10.88;;
8044;SDS011;4065;48.754;9.982;2024-03-29T18:53:05;17.58;;;13.18;;
8044;SDS011;4065;48.754;9.982;2024-03-29T18:56:27;19.98;;;14.70;;
8044;SDS011;4065;48.754;9.982;2024-03-29T18:59:51;11.82;;;7.80;;
8044;SDS011;4065;48.754;9.982;2024-03-29T19:03:14;14.07;;;8.63;;
8044;SDS011;4065;48.754;9.982;2024-03-29T19:06:35;13.23;;;7.13;;
8044;SDS011;4065;48.754;9.982;2024-03-29T19:09:57;14.93;;;10.02;;
8044;SDS011;4065;48.754;9.982;2024-03-29T19:13:18;10.70;;;8.27;;
8044;SDS011;4065;48.754;9.982;2024-03-29T19:16:42;9.57;;;6.75;;
8044;SDS011;4065;48.754;9.982;2024-03-29T19:20:06;15.90;;;9.85;;
8044;SDS011;4065;48.754;9.982;2024-03-29T19:23:28;12.90;;;8.75;;
8044;SDS011;4065;48.754;9.982;2024-03-29T19:26:51;16.13;;;9.77;;
8044;SDS011;4065;48.754;9.982;2024-03-29T19:30:14;12.85;;;8.10;;
8044;SDS011;4065;48.754;9.982;2024-03-29T19:33:37;17.27;;;9.32;;
8044;SDS011;4065;48.754;9.982;2024-03-29T19:37:00;14.75;;;10.18;;
8044;SDS011;4065;48.754;9.982;2024-03-29T19:40:22;14.35;;;9.00;;
8044;SDS011;4065;48.754;9.982;2024-03-29T19:43:44;11.70;;;8.55;;
8044;SDS011;4065;48.754;9.982;2024-03-29T19:47:04;9.07;;;7.22;;
8044;SDS011;4065;48.754;9.982;2024-03-29T19:50:26;7.60;;;6.55;;
8044;SDS011;4065;48.754;9.982;2024-03-29T19:53:50;8.00;;;4.82;;
8044;SDS011;4065;48.754;9.982;2024-03-29T19:57:11;6.72;;;4.13;;
8044;SDS011;4065;48.754;9.982;2024-03-29T20:00:32;7.00;;;3.28;;
8044;SDS011;4065;48.754;9.982;2024-03-29T20:03:53;9.40;;;4.47;;
8044;SDS011;4065;48.754;9.982;2024-03-29T20:07:15;6.93;;;3.65;;
8044;SDS011;4065;48.754;9.982;2024-03-29T20:10:38;12.57;;;3.60;;
8044;SDS011;4065;48.754;9.982;2024-03-29T20:14:00;10.75;;;5.38;;
8044;SDS011;4065;48.754;9.982;2024-03-29T20:17:22;9.27;;;4.80;;
8044;SDS011;4065;48.754;9.982;2024-03-29T20:20:45;9.57;;;4.97;;
8044;SDS011;4065;48.754;9.982;2024-03-29T20:24:07;13.52;;;5.47;;
8044;SDS011;4065;48.754;9.982;2024-03-29T20:27:30;14.50;;;5.60;;
8044;SDS011;4065;48.754;9.982;2024-03-29T20:30:54;15.40;;;5.18;;
8044;SDS011;4065;48.754;9.982;2024-03-29T20:34:16;17.00;;;5.57;;
8044;SDS011;4065;48.754;9.982;2024-03-29T20:37:37;15.27;;;5.70;;
8044;SDS011;4065;48.754;9.982;2024-03-29T20:40:58;20.38;;;5.13;;
8044;SDS011;4065;48.754;9.982;2024-03-29T20:44:20;28.88;;;6.05;;
8044;SDS011;4065;48.754;9.982;2024-03-29T20:47:42;26.85;;;6.32;;
8044;SDS011;4065;48.754;9.982;2024-03-29T20:51:03;26.88;;;5.97;;
8044;SDS011;4065;48.754;9.982;2024-03-29T20:54:25;32.22;;;7.32;;